Time;durP1;ratioP1;P1;durP2;ratioP2;P2;SDS_P1;SDS_P2;PMS_P1;PMS_P2;Temp;Humidity;BMP_temperature;BMP_pressure;BME280_temperature;BME280_humidity;BME280_pressure;Samples;Min_cycle;Max_cycle;Signal;HPM_P1;HPM_P2
2023/12/13 00:00:08;;;;;;;93.28;26.85;;;;;;;;;;1047586;28;20055;-66
2023/12/13 00:00:38;;;;;;;67.85;26.02;;;;;;;;;;1050029;28;20060;-66
2023/12/13 00:01:29;;;;;;;59.08;25.67;;;;;;;;;;1048265;28;20068;-66
2023/12/13 00:02:00;;;;;;;58.10;26.80;;;;;;;;;;1048525;28;20060;-66
2023/12/13 00:02:30;;;;;;;62.15;25.98;;;;;;;;;;1050500;28;20066;-66
2023/12/13 00:03:01;;;;;;;56.53;25.58;;;;;;;;;;1050272;28;20797;-66
2023/12/13 00:03:32;;;;;;;52.42;25.00;;;;;;;;;;1049047;28;20051;-65
2023/12/13 00:04:02;;;;;;;58.97;26.95;;;;;;;;;;1048595;28;20048;-66
2023/12/13 00:04:33;;;;;;;51.67;26.05;;;;;;;;;;1050813;28;20047;-66
2023/12/13 00:05:04;;;;;;;52.30;25.60;;;;;;;;;;1048721;28;20051;-66
2023/12/13 00:05:35;;;;;;;53.70;27.75;;;;;;;;;;1049930;28;20122;-66
2023/12/13 00:06:05;;;;;;;55.53;28.17;;;;;;;;;;1050690;28;20043;-66
2023/12/13 00:06:36;;;;;;;53.75;27.17;;;;;;;;;;1050111;28;20550;-66
2023/12/13 00:07:06;;;;;;;60.05;28.83;;;;;;;;;;1049880;28;20686;-66
2023/12/13 00:07:37;;;;;;;55.20;29.27;;;;;;;;;;1049493;28;20051;-66
2023/12/13 00:08:07;;;;;;;58.08;28.15;;;;;;;;;;1048753;28;20052;-66
2023/12/13 00:08:38;;;;;;;52.92;28.17;;;;;;;;;;1050195;28;20078;-66
2023/12/13 00:09:08;;;;;;;59.35;26.83;;;;;;;;;;1050475;28;20626;-66
2023/12/13 00:09:39;;;;;;;53.67;27.52;;;;;;;;;;1049392;28;20051;-66
2023/12/13 00:10:10;;;;;;;56.78;27.60;;;;;;;;;;1048651;28;20063;-66
2023/12/13 00:10:40;;;;;;;54.90;27.83;;;;;;;;;;1048992;28;20681;-65
2023/12/13 00:11:11;;;;;;;54.85;28.80;;;;;;;;;;1049650;28;20152;-66
2023/12/13 00:11:41;;;;;;;49.80;25.55;;;;;;;;;;1047778;28;20096;-66
2023/12/13 00:12:12;;;;;;;56.67;28.35;;;;;;;;;;1050143;28;20051;-66
2023/12/13 00:12:43;;;;;;;55.90;28.17;;;;;;;;;;1050650;28;20097;-65
2023/12/13 00:13:14;;;;;;;53.97;28.38;;;;;;;;;;1048524;28;20067;-66
2023/12/13 00:13:45;;;;;;;55.70;30.40;;;;;;;;;;1049243;28;20097;-66
2023/12/13 00:14:17;;;;;;;57.15;27.40;;;;;;;;;;1049484;28;20048;-67
2023/12/13 00:14:47;;;;;;;52.25;27.30;;;;;;;;;;1048260;28;20125;-66
2023/12/13 00:15:19;;;;;;;50.08;26.33;;;;;;;;;;1049316;28;20047;-66
2023/12/13 00:15:49;;;;;;;52.90;26.90;;;;;;;;;;1048394;28;20484;-66
2023/12/13 00:16:21;;;;;;;50.92;25.70;;;;;;;;;;1049373;28;20500;-66
2023/12/13 00:16:51;;;;;;;55.63;28.70;;;;;;;;;;1049148;28;20123;-66
2023/12/13 00:17:22;;;;;;;52.70;27.75;;;;;;;;;;1049063;28;20162;-66
2023/12/13 00:17:52;;;;;;;54.20;28.38;;;;;;;;;;1050239;28;20044;-66
2023/12/13 00:18:23;;;;;;;52.10;27.38;;;;;;;;;;1048345;28;20075;-66
2023/12/13 00:18:53;;;;;;;49.72;27.70;;;;;;;;;;1048799;28;20528;-66
2023/12/13 00:19:24;;;;;;;56.60;29.25;;;;;;;;;;1049549;28;20044;-66
2023/12/13 00:19:55;;;;;;;53.17;27.55;;;;;;;;;;1048710;28;20167;-66
2023/12/13 00:20:25;;;;;;;53.40;27.52;;;;;;;;;;1048846;28;20045;-66
2023/12/13 00:20:56;;;;;;;50.28;27.20;;;;;;;;;;1049196;28;20071;-66
2023/12/13 00:21:26;;;;;;;63.30;30.25;;;;;;;;;;1048984;28;20043;-66
2023/12/13 00:21:57;;;;;;;61.65;29.33;;;;;;;;;;1049814;28;20036;-66
2023/12/13 00:22:28;;;;;;;54.03;27.92;;;;;;;;;;1048792;28;20037;-66
2023/12/13 00:22:58;;;;;;;59.80;28.85;;;;;;;;;;1050189;28;20036;-66
2023/12/13 00:23:29;;;;;;;54.05;27.08;;;;;;;;;;1049002;28;20052;-66
2023/12/13 00:23:59;;;;;;;49.47;27.67;;;;;;;;;;1049766;28;20122;-66
2023/12/13 00:24:30;;;;;;;54.60;27.73;;;;;;;;;;1050119;28;20506;-66
2023/12/13 00:25:01;;;;;;;56.15;28.10;;;;;;;;;;1049598;28;20044;-66
2023/12/13 00:25:32;;;;;;;53.05;27.17;;;;;;;;;;1048471;28;20045;-66
2023/12/13 00:26:03;;;;;;;54.03;28.45;;;;;;;;;;1047640;28;20036;-66
2023/12/13 00:26:33;;;;;;;60.38;28.27;;;;;;;;;;1049289;28;20082;-66
2023/12/13 00:27:04;;;;;;;53.70;27.17;;;;;;;;;;1049083;28;20177;-66
2023/12/13 00:27:34;;;;;;;59.10;29.67;;;;;;;;;;1050749;28;20401;-66
2023/12/13 00:28:05;;;;;;;58.25;28.83;;;;;;;;;;1049102;28;20044;-66
2023/12/13 00:28:35;;;;;;;55.05;28.60;;;;;;;;;;1049786;28;20129;-66
2023/12/13 00:29:08;;;;;;;52.97;27.98;;;;;;;;;;1048403;28;20099;-66
2023/12/13 00:29:39;;;;;;;52.72;29.63;;;;;;;;;;1048751;28;20056;-66
2023/12/13 00:30:09;;;;;;;56.83;29.45;;;;;;;;;;1050227;28;20051;-66
2023/12/13 00:30:40;;;;;;;60.20;29.58;;;;;;;;;;1049549;28;20062;-66
2023/12/13 00:31:11;;;;;;;60.72;30.02;;;;;;;;;;1048927;28;20051;-66
2023/12/13 00:31:42;;;;;;;55.15;29.42;;;;;;;;;;1049142;28;20052;-66
2023/12/13 00:32:12;;;;;;;59.03;29.75;;;;;;;;;;1050261;28;20040;-66
2023/12/13 00:32:43;;;;;;;52.20;28.92;;;;;;;;;;1050290;28;20132;-66
2023/12/13 00:33:14;;;;;;;56.30;29.70;;;;;;;;;;1043495;28;20057;-66
2023/12/13 00:33:44;;;;;;;59.50;29.42;;;;;;;;;;1043883;28;20059;-66
2023/12/13 00:34:15;;;;;;;57.72;29.63;;;;;;;;;;1042653;28;20044;-66
2023/12/13 00:34:45;;;;;;;56.53;28.73;;;;;;;;;;1043912;28;20044;-66
2023/12/13 00:35:16;;;;;;;53.83;28.48;;;;;;;;;;1044928;28;20048;-66
2023/12/13 00:35:46;;;;;;;50.13;28.17;;;;;;;;;;1046562;28;20056;-66
2023/12/13 00:36:17;;;;;;;58.97;29.75;;;;;;;;;;1046049;28;20047;-66
2023/12/13 00:36:48;;;;;;;55.22;29.45;;;;;;;;;;1045292;28;20044;-66
2023/12/13 00:37:18;;;;;;;56.92;28.58;;;;;;;;;;1043466;28;20053;-66
2023/12/13 00:37:49;;;;;;;54.60;28.58;;;;;;;;;;1046039;28;20547;-66
2023/12/13 00:38:19;;;;;;;63.13;28.88;;;;;;;;;;1048403;28;20060;-67
2023/12/13 00:38:50;;;;;;;63.50;29.25;;;;;;;;;;1046046;28;20036;-66
2023/12/13 00:39:20;;;;;;;50.85;28.23;;;;;;;;;;1049481;28;20139;-66
2023/12/13 00:39:51;;;;;;;47.78;27.70;;;;;;;;;;1050169;28;20031;-66
2023/12/13 00:40:22;;;;;;;57.30;28.85;;;;;;;;;;1049575;28;20163;-66
2023/12/13 00:40:52;;;;;;;51.35;28.00;;;;;;;;;;1047796;28;20125;-66
2023/12/13 00:41:24;;;;;;;52.38;27.70;;;;;;;;;;1050800;28;20058;-67
2023/12/13 00:41:54;;;;;;;54.05;27.42;;;;;;;;;;1049024;28;20055;-66
2023/12/13 00:42:26;;;;;;;57.10;28.63;;;;;;;;;;1049630;28;20048;-65
2023/12/13 00:42:56;;;;;;;55.42;28.65;;;;;;;;;;1049458;28;20048;-66
2023/12/13 00:43:27;;;;;;;54.83;27.73;;;;;;;;;;1047857;28;20156;-66
2023/12/13 00:43:57;;;;;;;54.17;26.17;;;;;;;;;;1047164;28;20437;-66
2023/12/13 00:44:28;;;;;;;52.88;28.58;;;;;;;;;;1046484;28;20055;-66
2023/12/13 00:44:58;;;;;;;55.03;28.42;;;;;;;;;;1045079;28;20040;-66
2023/12/13 00:45:29;;;;;;;54.10;28.10;;;;;;;;;;1045225;28;20040;-66
2023/12/13 00:45:59;;;;;;;48.85;27.27;;;;;;;;;;1047641;28;20040;-66
2023/12/13 00:46:30;;;;;;;66.35;29.45;;;;;;;;;;1048565;28;20050;-66
2023/12/13 00:47:01;;;;;;;62.22;30.52;;;;;;;;;;1050294;28;20044;-66
2023/12/13 00:47:31;;;;;;;51.42;27.92;;;;;;;;;;1049914;28;20040;-66
2023/12/13 00:48:02;;;;;;;55.67;28.58;;;;;;;;;;1050129;28;20162;-66
2023/12/13 00:48:33;;;;;;;55.80;29.13;;;;;;;;;;1048275;28;20047;-66
2023/12/13 00:49:04;;;;;;;60.13;29.02;;;;;;;;;;1049678;28;20052;-66
2023/12/13 00:49:34;;;;;;;54.55;29.33;;;;;;;;;;1050019;28;20669;-66
2023/12/13 00:50:06;;;;;;;53.35;29.02;;;;;;;;;;1049501;28;20165;-65
2023/12/13 00:50:37;;;;;;;54.83;28.63;;;;;;;;;;1047861;28;20040;-66
2023/12/13 00:51:21;;;;;;;54.42;29.60;;;;;;;;;;1048510;28;20052;-66
2023/12/13 00:51:51;;;;;;;50.20;26.92;;;;;;;;;;1048229;28;20131;-66
2023/12/13 00:52:23;;;;;;;55.60;27.25;;;;;;;;;;1048834;28;20044;-66
2023/12/13 00:52:53;;;;;;;57.95;28.42;;;;;;;;;;1047149;28;20865;-66
2023/12/13 00:53:24;;;;;;;51.20;28.45;;;;;;;;;;1048419;28;20123;-66
2023/12/13 00:53:54;;;;;;;52.60;28.63;;;;;;;;;;1049293;28;20567;-66
2023/12/13 00:54:25;;;;;;;54.42;28.15;;;;;;;;;;1047313;28;20052;-66
2023/12/13 00:54:56;;;;;;;55.28;27.98;;;;;;;;;;1048823;28;22844;-65
2023/12/13 00:55:27;;;;;;;58.08;28.77;;;;;;;;;;1048798;28;20032;-66
2023/12/13 00:55:57;;;;;;;58.70;28.75;;;;;;;;;;1047857;28;20048;-66
2023/12/13 00:56:30;;;;;;;55.10;28.33;;;;;;;;;;1048532;28;20083;-66
2023/12/13 00:57:01;;;;;;;51.90;26.92;;;;;;;;;;1049985;28;20043;-66
2023/12/13 00:57:31;;;;;;;50.30;26.38;;;;;;;;;;1047747;28;20052;-66
2023/12/13 00:58:02;;;;;;;55.17;27.92;;;;;;;;;;1048461;28;20059;-66
2023/12/13 00:58:33;;;;;;;49.80;26.52;;;;;;;;;;1049281;28;20055;-66
2023/12/13 00:59:03;;;;;;;54.65;27.95;;;;;;;;;;1048861;28;20052;-65
2023/12/13 00:59:34;;;;;;;51.35;27.48;;;;;;;;;;1049510;28;20146;-65
2023/12/13 01:00:05;;;;;;;59.13;29.10;;;;;;;;;;1048763;28;20690;-66
2023/12/13 01:00:36;;;;;;;49.35;27.67;;;;;;;;;;1048889;28;20048;-65
2023/12/13 01:01:06;;;;;;;50.65;26.92;;;;;;;;;;1049080;28;20048;-66
2023/12/13 01:01:44;;;;;;;52.05;27.55;;;;;;;;;;1049717;28;20052;-66
2023/12/13 01:02:15;;;;;;;58.60;28.10;;;;;;;;;;1048466;28;20056;-66
2023/12/13 01:02:45;;;;;;;61.17;28.45;;;;;;;;;;1049211;28;20072;-66
2023/12/13 01:03:16;;;;;;;51.90;26.65;;;;;;;;;;1050138;28;20131;-66
2023/12/13 01:03:46;;;;;;;60.83;28.98;;;;;;;;;;1049393;28;20757;-65
2023/12/13 01:04:17;;;;;;;54.72;26.95;;;;;;;;;;1048980;28;20055;-66
2023/12/13 01:04:48;;;;;;;53.13;27.67;;;;;;;;;;1049516;28;20051;-66
2023/12/13 01:05:18;;;;;;;50.42;26.40;;;;;;;;;;1049315;28;20036;-66
2023/12/13 01:05:49;;;;;;;59.92;28.27;;;;;;;;;;1049785;28;20861;-66
2023/12/13 01:06:19;;;;;;;49.65;26.40;;;;;;;;;;1049365;28;20048;-65
2023/12/13 01:06:50;;;;;;;52.45;27.05;;;;;;;;;;1048084;28;20052;-66
2023/12/13 01:07:21;;;;;;;52.58;25.98;;;;;;;;;;1049851;28;20044;-66
2023/12/13 01:07:51;;;;;;;48.35;26.05;;;;;;;;;;1048482;28;20074;-66
2023/12/13 01:08:22;;;;;;;53.53;27.67;;;;;;;;;;1047904;28;20458;-66
2023/12/13 01:08:53;;;;;;;55.78;26.88;;;;;;;;;;1048304;28;20083;-66
2023/12/13 01:09:23;;;;;;;59.78;29.70;;;;;;;;;;1050331;28;20048;-66
2023/12/13 01:09:54;;;;;;;59.58;27.98;;;;;;;;;;1049995;28;20178;-66
2023/12/13 01:10:24;;;;;;;59.50;28.83;;;;;;;;;;1047860;28;20040;-67
2023/12/13 01:10:55;;;;;;;56.78;28.92;;;;;;;;;;1048660;28;20055;-66
2023/12/13 01:11:25;;;;;;;62.05;29.70;;;;;;;;;;1049209;28;20076;-66
2023/12/13 01:11:56;;;;;;;59.75;29.58;;;;;;;;;;1049807;28;20051;-66
2023/12/13 01:12:26;;;;;;;59.20;28.95;;;;;;;;;;1049331;28;20097;-66
2023/12/13 01:12:57;;;;;;;63.42;28.92;;;;;;;;;;1048940;28;20082;-66
2023/12/13 01:13:28;;;;;;;70.00;30.70;;;;;;;;;;1050158;28;20408;-66
2023/12/13 01:13:58;;;;;;;64.15;28.92;;;;;;;;;;1049262;28;20495;-66
2023/12/13 01:14:29;;;;;;;63.88;29.38;;;;;;;;;;1049578;28;20399;-66
2023/12/13 01:15:00;;;;;;;58.72;28.30;;;;;;;;;;1048722;28;20052;-66
2023/12/13 01:15:30;;;;;;;53.55;27.35;;;;;;;;;;1047090;28;20485;-66
2023/12/13 01:16:01;;;;;;;57.33;27.67;;;;;;;;;;1048593;28;20487;-66
2023/12/13 01:16:33;;;;;;;58.28;28.17;;;;;;;;;;1049805;28;20047;-66
2023/12/13 01:17:03;;;;;;;60.85;27.52;;;;;;;;;;1050248;28;21214;-66
2023/12/13 01:17:34;;;;;;;56.53;27.85;;;;;;;;;;1050188;28;20664;-66
2023/12/13 01:18:05;;;;;;;65.40;28.25;;;;;;;;;;1049503;28;20052;-66
2023/12/13 01:18:36;;;;;;;72.30;29.98;;;;;;;;;;1049915;28;20403;-66
2023/12/13 01:19:07;;;;;;;52.42;27.63;;;;;;;;;;1049408;28;20518;-66
2023/12/13 01:19:38;;;;;;;64.35;29.95;;;;;;;;;;1050832;28;20055;-66
2023/12/13 01:20:11;;;;;;;74.38;29.80;;;;;;;;;;1047175;28;20091;-66
2023/12/13 01:20:42;;;;;;;69.18;29.42;;;;;;;;;;1050935;28;20048;-66
2023/12/13 01:21:13;;;;;;;72.22;30.63;;;;;;;;;;1048836;28;20047;-66
2023/12/13 01:21:43;;;;;;;73.82;29.25;;;;;;;;;;1047279;28;20487;-67
2023/12/13 01:22:14;;;;;;;67.13;29.50;;;;;;;;;;1042973;28;20060;-66
2023/12/13 01:22:44;;;;;;;67.18;29.38;;;;;;;;;;1043791;28;20048;-66
2023/12/13 01:23:15;;;;;;;76.35;31.65;;;;;;;;;;1044911;28;20511;-66
2023/12/13 01:23:45;;;;;;;68.07;30.80;;;;;;;;;;1045238;28;20571;-66
2023/12/13 01:24:16;;;;;;;76.13;31.25;;;;;;;;;;1044199;28;20048;-66
2023/12/13 01:24:47;;;;;;;65.53;30.05;;;;;;;;;;1042833;28;20063;-66
2023/12/13 01:25:17;;;;;;;68.20;29.73;;;;;;;;;;1044173;28;20065;-66
2023/12/13 01:25:48;;;;;;;65.18;30.70;;;;;;;;;;1044065;28;20056;-66
2023/12/13 01:26:18;;;;;;;73.68;31.17;;;;;;;;;;1045500;28;20052;-66
2023/12/13 01:26:49;;;;;;;78.18;30.52;;;;;;;;;;1043300;28;20152;-66
2023/12/13 01:27:20;;;;;;;73.30;30.73;;;;;;;;;;1043661;28;20052;-67
2023/12/13 01:27:51;;;;;;;74.13;30.88;;;;;;;;;;1044489;28;20049;-66
2023/12/13 01:28:21;;;;;;;80.75;30.70;;;;;;;;;;1044623;28;20045;-66
2023/12/13 01:28:52;;;;;;;67.70;29.55;;;;;;;;;;1045902;28;20131;-66
2023/12/13 01:29:23;;;;;;;70.28;30.80;;;;;;;;;;1044279;28;20500;-66
2023/12/13 01:29:53;;;;;;;68.53;30.38;;;;;;;;;;1045277;28;20496;-66
2023/12/13 01:30:24;;;;;;;72.10;32.03;;;;;;;;;;1043768;28;20052;-66
2023/12/13 01:30:55;;;;;;;80.72;30.77;;;;;;;;;;1044188;28;20048;-66
2023/12/13 01:31:25;;;;;;;69.88;29.45;;;;;;;;;;1043026;28;20077;-66
2023/12/13 01:31:56;;;;;;;69.50;30.40;;;;;;;;;;1046016;28;20049;-66
2023/12/13 01:32:27;;;;;;;66.22;28.20;;;;;;;;;;1046598;28;20036;-66
2023/12/13 01:32:58;;;;;;;72.70;31.38;;;;;;;;;;1048378;28;20078;-66
2023/12/13 01:33:28;;;;;;;85.78;30.73;;;;;;;;;;1050487;28;20097;-66
2023/12/13 01:33:59;;;;;;;71.45;30.10;;;;;;;;;;1049943;28;20052;-66
2023/12/13 01:34:30;;;;;;;68.88;30.40;;;;;;;;;;1047474;28;20056;-66
2023/12/13 01:35:00;;;;;;;65.13;29.08;;;;;;;;;;1047847;28;20056;-66
2023/12/13 01:35:31;;;;;;;61.95;28.60;;;;;;;;;;1050466;28;20047;-66
2023/12/13 01:36:02;;;;;;;66.93;29.48;;;;;;;;;;1049609;28;20072;-66
2023/12/13 01:36:40;;;;;;;71.13;29.17;;;;;;;;;;1050589;28;20052;-66
2023/12/13 01:37:11;;;;;;;60.97;28.40;;;;;;;;;;1048428;28;20121;-66
2023/12/13 01:37:42;;;;;;;73.85;31.48;;;;;;;;;;1048619;28;20075;-66
2023/12/13 01:38:12;;;;;;;68.30;30.30;;;;;;;;;;1049445;28;20044;-66
2023/12/13 01:38:43;;;;;;;71.55;30.48;;;;;;;;;;1049505;28;20047;-66
2023/12/13 01:39:17;;;;;;;77.57;31.38;;;;;;;;;;1049928;28;20051;-66
2023/12/13 01:39:47;;;;;;;72.68;29.95;;;;;;;;;;1050108;28;20051;-66
2023/12/13 01:40:18;;;;;;;70.80;29.45;;;;;;;;;;1049655;28;20901;-67
2023/12/13 01:40:50;;;;;;;64.45;28.77;;;;;;;;;;1049360;28;20054;-66
2023/12/13 01:41:21;;;;;;;67.13;29.67;;;;;;;;;;1049449;28;20269;-66
2023/12/13 01:41:51;;;;;;;59.90;29.63;;;;;;;;;;1047952;28;20117;-66
2023/12/13 01:42:23;;;;;;;63.13;30.25;;;;;;;;;;1049977;28;20494;-66
2023/12/13 01:42:54;;;;;;;71.10;31.23;;;;;;;;;;1049411;28;21910;-66
2023/12/13 01:43:24;;;;;;;77.25;35.25;;;;;;;;;;1048418;28;23261;-66
2023/12/13 01:43:55;;;;;;;71.15;32.50;;;;;;;;;;1049611;28;20583;-66
2023/12/13 01:44:25;;;;;;;69.13;32.33;;;;;;;;;;1049876;28;20052;-66
2023/12/13 01:44:56;;;;;;;81.20;32.53;;;;;;;;;;1049099;28;20052;-66
2023/12/13 01:45:27;;;;;;;72.03;31.13;;;;;;;;;;1048826;28;20048;-66
2023/12/13 01:45:58;;;;;;;70.70;32.47;;;;;;;;;;1050159;28;20052;-66
2023/12/13 01:46:31;;;;;;;72.85;31.23;;;;;;;;;;1048093;28;20044;-66
2023/12/13 01:47:02;;;;;;;67.88;30.88;;;;;;;;;;1050195;28;20458;-66
2023/12/13 01:47:32;;;;;;;69.50;29.73;;;;;;;;;;1050474;28;20444;-66
2023/12/13 01:48:03;;;;;;;74.88;31.08;;;;;;;;;;1048533;28;20496;-66
2023/12/13 01:48:34;;;;;;;63.88;30.75;;;;;;;;;;1048263;28;21256;-66
2023/12/13 01:49:06;;;;;;;62.25;30.60;;;;;;;;;;1047654;28;20040;-66
2023/12/13 01:49:37;;;;;;;59.47;29.92;;;;;;;;;;1050104;28;20040;-66
2023/12/13 01:50:09;;;;;;;72.22;31.55;;;;;;;;;;1046011;28;20127;-66
2023/12/13 01:50:39;;;;;;;77.90;32.40;;;;;;;;;;1048120;28;20131;-66
2023/12/13 01:51:11;;;;;;;69.13;32.65;;;;;;;;;;1049487;28;20130;-66
2023/12/13 01:51:43;;;;;;;68.10;31.73;;;;;;;;;;1050987;28;20259;-66
2023/12/13 01:52:15;;;;;;;72.25;32.75;;;;;;;;;;1043138;28;20057;-66
2023/12/13 01:52:45;;;;;;;74.72;32.88;;;;;;;;;;1044071;28;20064;-66
2023/12/13 01:53:17;;;;;;;72.43;33.50;;;;;;;;;;1046436;28;20091;-66
2023/12/13 01:53:48;;;;;;;87.35;34.10;;;;;;;;;;1044943;28;20052;-66
2023/12/13 01:54:19;;;;;;;76.68;32.80;;;;;;;;;;1046829;28;20045;-66
2023/12/13 01:54:51;;;;;;;69.13;32.13;;;;;;;;;;1049062;28;20055;-66
2023/12/13 01:55:22;;;;;;;69.45;30.23;;;;;;;;;;1047767;28;20702;-66
2023/12/13 01:55:54;;;;;;;67.53;30.48;;;;;;;;;;1045909;28;20044;-66
2023/12/13 01:56:24;;;;;;;70.47;32.40;;;;;;;;;;1044952;28;20063;-66
2023/12/13 01:56:55;;;;;;;65.15;30.98;;;;;;;;;;1043730;28;20075;-66
2023/12/13 01:57:26;;;;;;;64.80;32.13;;;;;;;;;;1046095;28;20052;-66
2023/12/13 01:57:57;;;;;;;66.70;31.45;;;;;;;;;;1044850;28;20427;-66
2023/12/13 01:58:28;;;;;;;71.00;31.05;;;;;;;;;;1046585;28;20519;-66
2023/12/13 01:58:59;;;;;;;63.85;28.80;;;;;;;;;;1045409;28;20511;-66
2023/12/13 01:59:32;;;;;;;89.28;32.72;;;;;;;;;;1046202;28;20472;-66
2023/12/13 02:00:04;;;;;;;78.85;33.10;;;;;;;;;;1044903;28;23168;-65
2023/12/13 02:00:34;;;;;;;78.32;31.73;;;;;;;;;;1045297;28;20074;-66
2023/12/13 02:01:09;;;;;;;77.82;32.05;;;;;;;;;;1045787;28;20049;-66
2023/12/13 02:01:40;;;;;;;99.28;34.22;;;;;;;;;;1046492;28;20040;-66
2023/12/13 02:02:11;;;;;;;85.93;33.58;;;;;;;;;;1045748;28;20049;-66
2023/12/13 02:02:42;;;;;;;118.15;35.60;;;;;;;;;;1048264;28;20063;-65
2023/12/13 02:03:14;;;;;;;94.28;33.53;;;;;;;;;;1049686;28;20124;-66
2023/12/13 02:03:45;;;;;;;95.50;33.10;;;;;;;;;;1049126;28;20092;-66
2023/12/13 02:04:18;;;;;;;85.03;33.00;;;;;;;;;;1050083;28;20055;-65
2023/12/13 02:04:49;;;;;;;77.90;32.83;;;;;;;;;;1048748;28;20052;-66
2023/12/13 02:05:20;;;;;;;81.45;34.70;;;;;;;;;;1050219;28;20040;-66
2023/12/13 02:05:51;;;;;;;89.00;34.78;;;;;;;;;;1049838;28;20052;-66
2023/12/13 02:06:22;;;;;;;82.97;32.85;;;;;;;;;;1048909;28;20048;-66
2023/12/13 02:06:52;;;;;;;72.63;31.55;;;;;;;;;;1048963;28;20105;-66
2023/12/13 02:07:23;;;;;;;80.10;32.90;;;;;;;;;;1049845;28;20048;-66
2023/12/13 02:07:54;;;;;;;67.10;31.15;;;;;;;;;;1049368;28;20058;-66
2023/12/13 02:08:24;;;;;;;72.00;31.98;;;;;;;;;;1047635;28;20094;-66
2023/12/13 02:08:55;;;;;;;68.05;31.42;;;;;;;;;;1047997;28;20045;-66
2023/12/13 02:09:26;;;;;;;64.82;31.10;;;;;;;;;;1049562;28;20052;-66
2023/12/13 02:09:56;;;;;;;68.13;32.75;;;;;;;;;;1050663;28;20071;-66
2023/12/13 02:10:27;;;;;;;65.20;32.15;;;;;;;;;;1048640;28;20040;-66
2023/12/13 02:10:58;;;;;;;70.85;32.05;;;;;;;;;;1050108;28;20539;-66
2023/12/13 02:11:29;;;;;;;75.50;33.13;;;;;;;;;;1048827;28;20039;-66
2023/12/13 02:12:00;;;;;;;71.65;31.55;;;;;;;;;;1049756;28;20043;-66
2023/12/13 02:12:31;;;;;;;69.07;31.20;;;;;;;;;;1048146;28;20082;-66
2023/12/13 02:13:02;;;;;;;81.22;32.30;;;;;;;;;;1049413;28;20075;-66
2023/12/13 02:13:33;;;;;;;67.95;29.48;;;;;;;;;;1047879;28;20060;-66
2023/12/13 02:14:04;;;;;;;62.42;30.70;;;;;;;;;;1054000;28;20055;-66
2023/12/13 02:14:34;;;;;;;70.03;30.20;;;;;;;;;;1054117;28;20117;-66
2023/12/13 02:15:06;;;;;;;75.18;32.15;;;;;;;;;;1053859;28;20043;-66
2023/12/13 02:15:36;;;;;;;62.83;31.83;;;;;;;;;;1051326;28;20054;-66
2023/12/13 02:16:07;;;;;;;72.72;30.55;;;;;;;;;;1049390;28;20051;-66
2023/12/13 02:16:38;;;;;;;72.15;31.00;;;;;;;;;;1049024;28;20046;-66
2023/12/13 02:17:09;;;;;;;66.40;30.73;;;;;;;;;;1050239;28;20396;-66
2023/12/13 02:17:50;;;;;;;70.38;29.40;;;;;;;;;;1049950;28;20452;-66
2023/12/13 02:18:20;;;;;;;66.30;28.90;;;;;;;;;;1042129;28;20068;-66
2023/12/13 02:18:51;;;;;;;61.33;28.08;;;;;;;;;;1043233;28;20056;-66
2023/12/13 02:19:21;;;;;;;62.13;28.30;;;;;;;;;;1045254;28;20102;-66
2023/12/13 02:19:52;;;;;;;73.65;30.65;;;;;;;;;;1045422;28;20151;-66
2023/12/13 02:20:23;;;;;;;82.32;31.35;;;;;;;;;;1045317;28;22104;-66
2023/12/13 02:20:53;;;;;;;83.18;30.08;;;;;;;;;;1048093;28;20035;-66
2023/12/13 02:21:24;;;;;;;82.53;29.58;;;;;;;;;;1045854;28;20093;-66
2023/12/13 02:21:54;;;;;;;71.28;29.52;;;;;;;;;;1046279;28;20101;-66
2023/12/13 02:22:25;;;;;;;74.13;30.63;;;;;;;;;;1049695;28;20472;-66
2023/12/13 02:22:56;;;;;;;84.47;30.90;;;;;;;;;;1049515;28;20068;-66
2023/12/13 02:23:26;;;;;;;65.60;28.55;;;;;;;;;;1046938;28;20028;-66
2023/12/13 02:24:03;;;;;;;64.85;29.55;;;;;;;;;;1050319;28;20059;-66
2023/12/13 02:24:34;;;;;;;72.32;30.08;;;;;;;;;;1048285;28;20738;-66
2023/12/13 02:25:14;;;;;;;68.00;30.15;;;;;;;;;;1050312;28;20048;-66
2023/12/13 02:25:55;;;;;;;81.55;30.40;;;;;;;;;;1049347;28;20384;-66
2023/12/13 02:26:26;;;;;;;68.78;27.90;;;;;;;;;;1048707;28;20055;-66
2023/12/13 02:26:57;;;;;;;63.70;28.52;;;;;;;;;;1048732;28;20090;-66
2023/12/13 02:27:29;;;;;;;60.25;28.85;;;;;;;;;;1050326;28;20048;-66
2023/12/13 02:28:00;;;;;;;56.35;28.67;;;;;;;;;;1049679;28;20376;-66
2023/12/13 02:28:31;;;;;;;60.15;28.35;;;;;;;;;;1050336;28;20479;-66
2023/12/13 02:29:02;;;;;;;63.90;28.65;;;;;;;;;;1049578;28;20119;-66
2023/12/13 02:29:32;;;;;;;63.67;29.70;;;;;;;;;;1049690;28;20052;-66
2023/12/13 02:30:06;;;;;;;63.78;29.35;;;;;;;;;;1046480;28;20044;-66
2023/12/13 02:30:37;;;;;;;61.30;27.25;;;;;;;;;;1049866;28;20048;-66
2023/12/13 02:31:08;;;;;;;68.07;28.77;;;;;;;;;;1049612;28;20044;-66
2023/12/13 02:31:40;;;;;;;66.53;29.13;;;;;;;;;;1047768;28;20124;-66
2023/12/13 02:32:10;;;;;;;68.00;29.50;;;;;;;;;;1047926;28;20043;-66
2023/12/13 02:32:41;;;;;;;66.38;28.98;;;;;;;;;;1048639;28;20052;-66
2023/12/13 02:33:11;;;;;;;63.03;29.65;;;;;;;;;;1048656;28;20082;-66
2023/12/13 02:33:43;;;;;;;68.82;30.20;;;;;;;;;;1048600;28;20513;-66
2023/12/13 02:34:14;;;;;;;63.20;30.15;;;;;;;;;;1049984;28;20479;-66
2023/12/13 02:34:44;;;;;;;62.40;29.05;;;;;;;;;;1049547;28;20048;-66
2023/12/13 02:35:16;;;;;;;60.60;27.52;;;;;;;;;;1049723;28;20044;-66
2023/12/13 02:35:46;;;;;;;58.10;27.98;;;;;;;;;;1050370;28;20051;-66
2023/12/13 02:36:17;;;;;;;60.22;28.17;;;;;;;;;;1048266;28;20044;-66
2023/12/13 02:36:48;;;;;;;60.42;28.25;;;;;;;;;;1049750;28;20048;-66
2023/12/13 02:37:19;;;;;;;66.20;28.30;;;;;;;;;;1048780;28;20079;-66
2023/12/13 02:37:49;;;;;;;69.55;28.23;;;;;;;;;;1048365;28;20040;-66
2023/12/13 02:38:20;;;;;;;59.05;27.52;;;;;;;;;;1050365;28;20043;-66
2023/12/13 02:38:51;;;;;;;66.82;28.42;;;;;;;;;;1047684;28;20052;-66
2023/12/13 02:39:21;;;;;;;69.15;29.45;;;;;;;;;;1049328;28;20055;-66
2023/12/13 02:39:52;;;;;;;62.65;28.65;;;;;;;;;;1049347;28;20068;-66
2023/12/13 02:40:22;;;;;;;61.83;27.85;;;;;;;;;;1048796;28;20075;-66
2023/12/13 02:40:53;;;;;;;55.78;27.38;;;;;;;;;;1050108;28;20098;-66
2023/12/13 02:41:23;;;;;;;53.78;27.08;;;;;;;;;;1049184;28;20434;-66
2023/12/13 02:41:54;;;;;;;59.20;26.15;;;;;;;;;;1048892;28;20036;-66
2023/12/13 02:42:25;;;;;;;57.15;26.75;;;;;;;;;;1050552;28;20056;-66
2023/12/13 02:42:55;;;;;;;61.42;26.90;;;;;;;;;;1049752;28;20040;-66
2023/12/13 02:43:27;;;;;;;58.53;26.98;;;;;;;;;;1048089;28;20115;-66
2023/12/13 02:43:59;;;;;;;59.60;28.02;;;;;;;;;;1048156;28;20048;-66
2023/12/13 02:44:30;;;;;;;60.08;27.10;;;;;;;;;;1049368;28;20101;-66
2023/12/13 02:45:00;;;;;;;59.63;24.45;;;;;;;;;;1049187;28;20097;-66
2023/12/13 02:45:31;;;;;;;61.72;26.23;;;;;;;;;;1049757;28;20048;-66
2023/12/13 02:46:02;;;;;;;65.22;27.35;;;;;;;;;;1049708;28;20392;-66
2023/12/13 02:46:32;;;;;;;56.95;26.90;;;;;;;;;;1048572;28;20053;-66
2023/12/13 02:47:03;;;;;;;58.22;26.08;;;;;;;;;;1047375;28;20052;-66
2023/12/13 02:47:34;;;;;;;61.42;26.17;;;;;;;;;;1048020;28;20048;-66
2023/12/13 02:48:04;;;;;;;59.83;25.45;;;;;;;;;;1048642;28;20052;-66
2023/12/13 02:48:35;;;;;;;62.50;27.48;;;;;;;;;;1047959;28;23140;-66
2023/12/13 02:49:05;;;;;;;59.08;27.98;;;;;;;;;;1050075;28;20139;-66
2023/12/13 02:49:36;;;;;;;56.03;26.20;;;;;;;;;;1050698;28;20505;-66
2023/12/13 02:50:11;;;;;;;57.20;26.38;;;;;;;;;;1049892;28;20052;-66
2023/12/13 02:50:42;;;;;;;51.15;25.10;;;;;;;;;;1050037;28;20047;-66
2023/12/13 02:51:12;;;;;;;54.67;26.20;;;;;;;;;;1050716;28;20044;-66
2023/12/13 02:51:43;;;;;;;48.05;24.02;;;;;;;;;;1051080;28;20052;-66
2023/12/13 02:52:13;;;;;;;56.08;25.30;;;;;;;;;;1050933;28;20042;-66
2023/12/13 02:52:44;;;;;;;53.60;25.00;;;;;;;;;;1049311;28;20058;-66
2023/12/13 02:53:15;;;;;;;55.83;23.85;;;;;;;;;;1050315;28;20733;-66
2023/12/13 02:53:46;;;;;;;56.70;24.95;;;;;;;;;;1049182;28;20036;-66
2023/12/13 02:54:16;;;;;;;54.13;25.70;;;;;;;;;;1050277;28;20052;-66
2023/12/13 02:54:47;;;;;;;53.42;24.92;;;;;;;;;;1049749;28;20044;-66
2023/12/13 02:55:17;;;;;;;51.33;26.10;;;;;;;;;;1050743;28;20080;-66
2023/12/13 02:55:48;;;;;;;57.78;26.50;;;;;;;;;;1048710;28;20047;-66
2023/12/13 02:56:18;;;;;;;58.70;25.95;;;;;;;;;;1051072;28;20140;-66
2023/12/13 02:56:49;;;;;;;58.42;27.13;;;;;;;;;;1050059;28;20067;-66
2023/12/13 02:57:20;;;;;;;56.33;25.85;;;;;;;;;;1050960;28;20051;-66
2023/12/13 02:57:50;;;;;;;56.95;23.98;;;;;;;;;;1050708;28;20044;-66
2023/12/13 02:58:22;;;;;;;58.50;25.73;;;;;;;;;;1051094;28;20434;-66
2023/12/13 02:58:52;;;;;;;59.13;24.50;;;;;;;;;;1048624;28;20149;-66
2023/12/13 02:59:23;;;;;;;56.92;24.95;;;;;;;;;;1050980;28;20471;-65
2023/12/13 02:59:53;;;;;;;65.07;25.38;;;;;;;;;;1049027;28;20143;-66
2023/12/13 03:00:24;;;;;;;56.60;24.77;;;;;;;;;;1051174;28;20776;-66